createdAt,value
2019-01-22T00:00:06.058Z,43.60
2019-01-22T00:01:06.032Z,42.50
2019-01-22T00:02:06.009Z,46.60
2019-01-22T00:03:05.972Z,44.70
2019-01-22T00:04:05.958Z,45.20
2019-01-22T00:05:05.915Z,43.40
2019-01-22T00:06:05.885Z,41.60
2019-01-22T00:07:05.858Z,45.70
2019-01-22T00:08:05.852Z,44.90
2019-01-22T00:09:05.806Z,44.90
2019-01-22T00:10:05.777Z,41.00
2019-01-22T00:11:05.743Z,42.10
2019-01-22T00:12:05.727Z,45.80
2019-01-22T00:13:05.682Z,43.60
2019-01-22T00:14:05.664Z,43.90
2019-01-22T00:15:05.624Z,41.80
2019-01-22T00:16:05.603Z,40.90
2019-01-22T00:17:05.567Z,43.90
2019-01-22T00:18:05.537Z,42.90
2019-01-22T00:19:05.508Z,40.40
2019-01-22T00:20:05.481Z,43.30
2019-01-22T00:21:05.460Z,44.90
2019-01-22T00:22:05.429Z,44.80
2019-01-22T00:23:05.396Z,47.90
2019-01-22T00:24:05.365Z,43.40
2019-01-22T00:25:05.343Z,43.30
2019-01-22T00:26:05.304Z,44.90
2019-01-22T00:27:05.292Z,44.40
2019-01-22T00:28:05.255Z,43.40
2019-01-22T00:29:05.218Z,45.50
2019-01-22T00:30:05.190Z,40.00
2019-01-22T00:31:05.159Z,42.70
2019-01-22T00:32:05.132Z,41.80
2019-01-22T00:33:05.102Z,38.30
2019-01-22T00:34:05.079Z,38.60
2019-01-22T00:35:05.053Z,40.90
2019-01-22T00:36:05.018Z,40.70
2019-01-22T00:37:04.990Z,40.80
2019-01-22T00:38:04.962Z,41.10
2019-01-22T00:39:04.939Z,41.90
2019-01-22T00:40:04.917Z,38.30
2019-01-22T00:41:04.874Z,41.20
2019-01-22T00:42:04.853Z,40.80
2019-01-22T00:43:04.823Z,44.00
2019-01-22T00:44:04.787Z,41.00
2019-01-22T00:45:04.772Z,41.60
2019-01-22T00:46:04.731Z,40.30
2019-01-22T00:47:04.721Z,40.20
2019-01-22T00:48:04.675Z,41.70
2019-01-22T00:49:04.641Z,41.30
2019-01-22T00:50:04.612Z,40.70
2019-01-22T00:51:04.581Z,40.40
2019-01-22T00:52:04.552Z,41.30
2019-01-22T00:53:09.931Z,37.50
2019-01-22T00:54:04.493Z,37.90
2019-01-22T00:55:04.479Z,43.20
2019-01-22T00:56:04.435Z,39.10
2019-01-22T00:57:04.405Z,40.10
2019-01-22T00:58:04.378Z,40.00
2019-01-22T00:59:04.357Z,45.30
2019-01-22T01:00:04.319Z,42.80
2019-01-22T01:01:04.289Z,39.70
2019-01-22T01:02:04.259Z,39.10
2019-01-22T01:03:04.231Z,39.60
2019-01-22T01:04:04.210Z,40.00
2019-01-22T01:05:04.170Z,41.30
2019-01-22T01:06:04.142Z,40.20
2019-01-22T01:07:04.121Z,43.90
2019-01-22T01:08:04.083Z,38.70
2019-01-22T01:09:04.057Z,41.90
2019-01-22T01:10:04.026Z,39.30
2019-01-22T01:11:03.997Z,45.20
2019-01-22T01:12:03.966Z,37.90
2019-01-22T01:13:03.935Z,38.20
2019-01-22T01:14:03.907Z,43.00
2019-01-22T01:15:03.884Z,40.70
2019-01-22T01:16:03.850Z,39.70
2019-01-22T01:17:03.819Z,40.90
2019-01-22T01:18:03.790Z,45.10
2019-01-22T01:19:03.767Z,42.50
2019-01-22T01:20:03.731Z,41.20
2019-01-22T01:21:03.712Z,39.60
2019-01-22T01:22:03.680Z,40.50
2019-01-22T01:23:03.644Z,39.90
2019-01-22T01:24:03.618Z,43.10
2019-01-22T01:25:03.583Z,39.50
2019-01-22T01:26:03.554Z,42.20
2019-01-22T01:27:03.524Z,40.00
2019-01-22T01:28:03.495Z,39.60
2019-01-22T01:29:03.466Z,42.70
2019-01-22T01:30:03.453Z,37.80
2019-01-22T01:31:03.408Z,43.60
2019-01-22T01:32:03.377Z,41.40
2019-01-22T01:33:03.345Z,42.40
2019-01-22T01:34:03.315Z,44.70
2019-01-22T01:35:03.287Z,40.70
2019-01-22T01:36:03.256Z,43.90
2019-01-22T01:37:03.228Z,43.40
2019-01-22T01:38:03.197Z,40.30
2019-01-22T01:39:03.174Z,41.50
2019-01-22T01:40:03.138Z,40.10
2019-01-22T01:41:03.108Z,45.50
2019-01-22T01:42:03.078Z,40.70
2019-01-22T01:43:03.048Z,43.30
2019-01-22T01:44:03.036Z,40.10
2019-01-22T01:45:02.995Z,39.50
2019-01-22T01:46:02.958Z,39.80
2019-01-22T01:47:02.932Z,42.80
2019-01-22T01:48:02.910Z,40.30
2019-01-22T01:49:02.877Z,37.80
2019-01-22T01:50:02.841Z,41.30
2019-01-22T01:51:02.811Z,38.60
2019-01-22T01:52:02.781Z,41.50
2019-01-22T01:53:02.751Z,41.90
2019-01-22T01:54:02.721Z,41.80
2019-01-22T01:55:02.691Z,41.60
2019-01-22T01:56:02.662Z,42.00
2019-01-22T01:57:02.632Z,41.10
2019-01-22T01:58:02.609Z,37.90
2019-01-22T01:59:02.573Z,39.90
2019-01-22T02:00:02.546Z,41.30
2019-01-22T02:01:02.516Z,40.50
2019-01-22T02:02:02.486Z,44.40
2019-01-22T02:03:02.463Z,44.60
2019-01-22T02:04:02.424Z,39.90
2019-01-22T02:05:02.404Z,42.90
2019-01-22T02:06:02.367Z,39.30
2019-01-22T02:07:02.337Z,38.60
2019-01-22T02:08:02.305Z,43.00
2019-01-22T02:09:02.284Z,39.10
2019-01-22T02:10:02.247Z,40.80
2019-01-22T02:11:02.215Z,40.50
2019-01-22T02:12:02.188Z,41.40
2019-01-22T02:13:02.165Z,40.80
2019-01-22T02:14:02.126Z,44.20
2019-01-22T02:15:02.096Z,43.20
2019-01-22T02:16:02.067Z,39.90
2019-01-22T02:17:02.036Z,38.50
2019-01-22T02:18:02.005Z,43.00
2019-01-22T02:19:01.976Z,39.40
2019-01-22T02:20:01.952Z,43.30
2019-01-22T02:21:01.917Z,43.40
2019-01-22T02:22:01.886Z,43.90
2019-01-22T02:23:01.857Z,40.90
2019-01-22T02:24:01.832Z,38.20
2019-01-22T02:25:01.814Z,41.60
2019-01-22T02:26:01.766Z,41.50
2019-01-22T02:27:01.736Z,40.50
2019-01-22T02:28:01.715Z,38.30
2019-01-22T02:29:01.677Z,45.10
2019-01-22T02:30:01.664Z,44.60
2019-01-22T02:31:01.621Z,45.60
2019-01-22T02:32:01.588Z,39.70
2019-01-22T02:33:01.557Z,45.20
2019-01-22T02:34:01.527Z,44.10
2019-01-22T02:35:01.496Z,41.60
2019-01-22T02:36:01.467Z,42.10
2019-01-22T02:37:01.437Z,43.00
2019-01-22T02:38:01.407Z,45.80
2019-01-22T02:39:01.376Z,42.60
2019-01-22T02:40:01.348Z,42.70
2019-01-22T02:41:01.325Z,45.50
2019-01-22T02:42:01.287Z,43.30
2019-01-22T02:43:01.255Z,42.40
2019-01-22T02:44:01.234Z,44.50
2019-01-22T02:45:01.197Z,44.40
2019-01-22T02:46:01.168Z,42.90
2019-01-22T02:47:01.137Z,40.20
2019-01-22T02:48:01.107Z,41.50
2019-01-22T02:49:01.076Z,50.00
2019-01-22T02:50:01.063Z,43.80
2019-01-22T02:51:01.016Z,41.70
2019-01-22T02:52:00.986Z,45.40
2019-01-22T02:53:00.950Z,45.80
2019-01-22T02:54:00.919Z,40.40
2019-01-22T02:55:00.893Z,43.80
2019-01-22T02:56:00.860Z,39.00
2019-01-22T02:57:00.830Z,42.70
2019-01-22T02:58:00.798Z,40.30
2019-01-22T02:59:00.766Z,43.00
2019-01-22T03:00:00.742Z,44.70
2019-01-22T03:01:00.705Z,42.00
2019-01-22T03:02:00.677Z,39.90
2019-01-22T03:03:00.645Z,42.40
2019-01-22T03:04:00.625Z,45.40
2019-01-22T03:05:00.583Z,39.90
2019-01-22T03:06:00.554Z,40.60
2019-01-22T03:07:00.530Z,43.20
2019-01-22T03:08:00.495Z,39.80
2019-01-22T03:09:00.477Z,40.70
2019-01-22T03:10:00.431Z,44.70
2019-01-22T03:11:00.410Z,42.40
2019-01-22T03:12:00.372Z,40.00
2019-01-22T03:13:00.342Z,42.00
2019-01-22T03:14:00.310Z,42.30
2019-01-22T03:15:00.279Z,41.00
2019-01-22T03:16:00.254Z,39.60
2019-01-22T03:17:00.219Z,40.00
2019-01-22T03:18:00.198Z,42.40
2019-01-22T03:19:00.160Z,40.20
2019-01-22T03:20:00.304Z,39.90
2019-01-22T03:21:00.104Z,40.80
2019-01-22T03:22:00.068Z,39.50
2019-01-22T03:23:00.040Z,40.50
2019-01-22T03:24:00.008Z,40.20
2019-01-22T03:24:59.978Z,40.10
2019-01-22T03:25:59.948Z,41.50
2019-01-22T03:26:59.916Z,40.60
2019-01-22T03:27:59.889Z,40.50
2019-01-22T03:28:59.865Z,41.00
2019-01-22T03:29:59.823Z,43.80
2019-01-22T03:30:59.795Z,38.60
2019-01-22T03:31:59.779Z,42.20
2019-01-22T03:32:59.732Z,45.40
2019-01-22T03:33:59.802Z,42.90
2019-01-22T03:34:59.680Z,41.50
2019-01-22T03:35:59.647Z,42.20
2019-01-22T03:36:59.612Z,40.50
2019-01-22T03:37:59.580Z,41.50
2019-01-22T03:38:59.557Z,38.30
2019-01-22T03:39:59.517Z,40.80
2019-01-22T03:40:59.486Z,38.30
2019-01-22T03:41:59.457Z,42.10
2019-01-22T03:42:59.425Z,39.90
2019-01-22T03:43:59.396Z,42.30
2019-01-22T03:44:59.366Z,40.90
2019-01-22T03:45:59.332Z,40.50
2019-01-22T03:46:59.304Z,39.60
2019-01-22T03:47:59.271Z,46.10
2019-01-22T03:48:59.255Z,38.50
2019-01-22T03:49:59.211Z,39.20
2019-01-22T03:50:59.178Z,37.30
2019-01-22T03:51:59.150Z,41.30
2019-01-22T03:52:59.118Z,39.10
2019-01-22T03:53:59.091Z,43.00
2019-01-22T03:54:59.058Z,39.30
2019-01-22T03:55:59.036Z,37.10
2019-01-22T03:56:58.998Z,41.90
2019-01-22T03:57:58.966Z,38.10
2019-01-22T03:58:58.939Z,43.20
2019-01-22T03:59:58.907Z,41.00
2019-01-22T04:00:58.876Z,37.00
2019-01-22T04:01:58.844Z,39.50
2019-01-22T04:02:58.818Z,37.90
2019-01-22T04:03:58.785Z,37.70
2019-01-22T04:04:58.754Z,37.70
2019-01-22T04:05:58.727Z,38.20
2019-01-22T04:06:58.693Z,39.20
2019-01-22T04:07:58.735Z,39.00
2019-01-22T04:08:58.633Z,33.90
2019-01-22T04:09:58.600Z,34.90
2019-01-22T04:10:58.619Z,37.70
2019-01-22T04:11:58.547Z,35.60
2019-01-22T04:12:58.508Z,34.50
2019-01-22T04:13:58.479Z,35.30
2019-01-22T04:14:58.446Z,35.10
2019-01-22T04:15:58.416Z,35.00
2019-01-22T04:16:58.387Z,35.70
2019-01-22T04:17:58.359Z,35.60
2019-01-22T04:18:58.328Z,34.40
2019-01-22T04:19:58.303Z,37.10
2019-01-22T04:20:58.264Z,37.20
2019-01-22T04:21:58.233Z,34.70
2019-01-22T04:22:58.203Z,32.40
2019-01-22T04:24:01.854Z,36.20
2019-01-22T04:24:58.190Z,32.40
2019-01-22T04:25:58.115Z,35.70
2019-01-22T04:26:58.082Z,32.40
2019-01-22T04:27:58.051Z,34.40
2019-01-22T04:28:58.018Z,34.60
2019-01-22T04:29:57.989Z,34.50
2019-01-22T04:30:57.958Z,31.80
2019-01-22T04:31:57.937Z,31.60
2019-01-22T04:32:57.898Z,32.70
2019-01-22T04:33:57.881Z,32.90
2019-01-22T04:34:57.838Z,31.80
2019-01-22T04:35:57.808Z,34.70
2019-01-22T04:36:57.774Z,31.20
2019-01-22T04:37:57.753Z,31.40
2019-01-22T04:38:57.712Z,31.40
2019-01-22T04:39:57.684Z,33.40
2019-01-22T04:40:57.652Z,31.10
2019-01-22T04:41:57.622Z,29.20
2019-01-22T04:42:57.591Z,31.80
2019-01-22T04:43:57.562Z,33.00
2019-01-22T04:44:57.539Z,31.00
2019-01-22T04:45:57.499Z,30.30
2019-01-22T04:46:57.472Z,32.00
2019-01-22T04:47:57.442Z,32.20
2019-01-22T04:48:57.412Z,32.30
2019-01-22T04:49:57.384Z,33.20
2019-01-22T04:50:57.348Z,30.50
2019-01-22T04:51:57.315Z,29.30
2019-01-22T04:52:57.286Z,32.00
2019-01-22T04:53:57.252Z,30.90
2019-01-22T04:54:57.225Z,29.30
2019-01-22T04:55:57.193Z,31.70
2019-01-22T04:56:57.160Z,32.40
2019-01-22T04:57:57.130Z,30.90
2019-01-22T04:58:57.108Z,30.60
2019-01-22T04:59:57.068Z,28.30
2019-01-22T05:00:57.037Z,31.90
2019-01-22T05:01:57.006Z,30.70
2019-01-22T05:02:56.984Z,32.40
2019-01-22T05:03:56.944Z,33.00
2019-01-22T05:04:56.915Z,30.40
2019-01-22T05:05:56.881Z,29.70
2019-01-22T05:06:56.852Z,32.90
2019-01-22T05:07:56.822Z,26.90
2019-01-22T05:08:56.788Z,31.80
2019-01-22T05:09:56.759Z,33.70
2019-01-22T05:10:56.733Z,29.50
2019-01-22T05:11:56.698Z,29.40
2019-01-22T05:12:56.716Z,31.10
2019-01-22T05:13:56.636Z,27.80
2019-01-22T05:14:56.620Z,31.00
2019-01-22T05:15:56.575Z,28.50
2019-01-22T05:16:56.543Z,31.80
2019-01-22T05:17:56.511Z,29.10
2019-01-22T05:18:56.483Z,31.30
2019-01-22T05:19:56.497Z,28.30
2019-01-22T05:20:56.430Z,33.40
2019-01-22T05:21:56.390Z,29.10
2019-01-22T05:22:56.358Z,31.10
2019-01-22T05:23:56.331Z,30.50
2019-01-22T05:24:56.295Z,29.90
2019-01-22T05:25:56.265Z,27.70
2019-01-22T05:26:56.235Z,30.30
2019-01-22T05:27:56.203Z,28.50
2019-01-22T05:28:56.172Z,30.40
2019-01-22T05:29:56.149Z,29.10
2019-01-22T05:30:56.110Z,30.50
2019-01-22T05:31:56.079Z,32.90
2019-01-22T05:32:56.052Z,31.30
2019-01-22T05:33:56.019Z,30.50
2019-01-22T05:34:55.986Z,28.90
2019-01-22T05:35:55.955Z,29.30
2019-01-22T05:36:55.929Z,31.20
2019-01-22T05:37:55.894Z,32.30
2019-01-22T05:38:55.861Z,31.00
2019-01-22T05:39:55.829Z,33.10
2019-01-22T05:40:55.807Z,29.60
2019-01-22T05:41:55.773Z,32.20
2019-01-22T05:42:55.738Z,30.90
2019-01-22T05:43:55.706Z,30.40
2019-01-22T05:44:55.674Z,33.70
2019-01-22T05:45:55.644Z,29.20
2019-01-22T05:46:55.621Z,32.50
2019-01-22T05:47:55.583Z,32.40
2019-01-22T05:48:55.550Z,30.70
2019-01-22T05:49:55.523Z,29.50
2019-01-22T05:50:55.491Z,29.40
2019-01-22T05:51:55.458Z,31.30
2019-01-22T05:52:55.427Z,29.80
2019-01-22T05:53:55.394Z,28.70
2019-01-22T05:54:55.465Z,28.70
2019-01-22T05:55:55.335Z,31.20
2019-01-22T05:56:55.309Z,29.30
2019-01-22T05:57:55.272Z,29.60
2019-01-22T05:58:55.239Z,30.40
2019-01-22T05:59:55.210Z,34.70
2019-01-22T06:00:55.179Z,27.90
2019-01-22T06:01:55.147Z,29.70
2019-01-22T06:02:55.118Z,31.20
2019-01-22T06:03:55.086Z,31.70
2019-01-22T06:04:55.054Z,30.60
2019-01-22T06:05:55.022Z,28.80
2019-01-22T06:06:54.994Z,31.30
2019-01-22T06:07:54.969Z,29.60
2019-01-22T06:08:54.978Z,29.50
2019-01-22T06:09:54.908Z,28.10
2019-01-22T06:10:54.867Z,26.20
2019-01-22T06:11:54.837Z,27.50
2019-01-22T06:12:54.805Z,34.10
2019-01-22T06:13:54.776Z,28.20
2019-01-22T06:14:54.745Z,29.00
2019-01-22T06:15:54.760Z,30.20
2019-01-22T06:16:54.679Z,28.90
2019-01-22T06:17:54.650Z,27.80
2019-01-22T06:18:54.619Z,29.20
2019-01-22T06:19:54.601Z,30.50
2019-01-22T06:20:54.559Z,29.80
2019-01-22T06:21:54.558Z,29.80
2019-01-22T06:22:54.497Z,28.40
2019-01-22T06:23:54.467Z,34.00
2019-01-22T06:24:54.444Z,31.50
2019-01-22T06:25:54.403Z,32.20
2019-01-22T06:26:54.372Z,28.00
2019-01-22T06:27:54.341Z,29.30
2019-01-22T06:28:54.309Z,29.70
2019-01-22T06:29:54.278Z,26.70
2019-01-22T06:30:54.247Z,29.90
2019-01-22T06:31:54.223Z,29.70
2019-01-22T06:32:54.206Z,29.30
2019-01-22T06:33:54.155Z,29.40
2019-01-22T06:34:54.126Z,28.10
2019-01-22T06:35:54.101Z,31.00
2019-01-22T06:36:54.061Z,29.50
2019-01-22T06:37:54.030Z,25.30
2019-01-22T06:38:54.001Z,29.50
2019-01-22T06:39:53.975Z,30.10
2019-01-22T06:40:53.936Z,29.80
2019-01-22T06:41:53.913Z,29.70
2019-01-22T06:42:54.023Z,28.00
2019-01-22T06:43:53.842Z,28.30
2019-01-22T06:44:53.811Z,29.80
2019-01-22T06:45:53.796Z,31.80
2019-01-22T06:46:53.750Z,28.20
2019-01-22T06:47:53.718Z,31.30
2019-01-22T06:48:53.692Z,30.70
2019-01-22T06:49:53.656Z,32.70
2019-01-22T06:50:53.630Z,27.60
2019-01-22T06:51:53.645Z,27.00
2019-01-22T06:52:53.567Z,29.70
2019-01-22T06:53:53.532Z,27.20
2019-01-22T06:54:53.503Z,28.90
2019-01-22T06:55:53.471Z,29.90
2019-01-22T06:56:53.438Z,25.90
2019-01-22T06:57:53.409Z,27.30
2019-01-22T06:58:53.393Z,27.20
2019-01-22T06:59:53.348Z,26.80
2019-01-22T07:00:53.314Z,26.40
2019-01-22T07:01:53.283Z,25.90
2019-01-22T07:02:53.255Z,30.40
2019-01-22T07:03:53.228Z,25.50
2019-01-22T07:04:53.190Z,25.10
2019-01-22T07:05:53.158Z,26.00
2019-01-22T07:06:53.128Z,25.30
2019-01-22T07:07:53.103Z,24.50
2019-01-22T07:08:53.065Z,28.40
2019-01-22T07:09:53.035Z,26.00
2019-01-22T07:10:53.004Z,28.40
2019-01-22T07:11:52.972Z,24.80
2019-01-22T07:12:52.945Z,26.10
2019-01-22T07:13:52.910Z,24.50
2019-01-22T07:14:52.878Z,24.40
2019-01-22T07:15:52.851Z,25.50
2019-01-22T07:16:52.816Z,25.70
2019-01-22T07:17:52.785Z,27.60
2019-01-22T07:18:52.756Z,26.00
2019-01-22T07:19:52.739Z,25.00
2019-01-22T07:20:52.693Z,26.60
2019-01-22T07:21:52.663Z,26.00
2019-01-22T07:22:52.629Z,28.40
2019-01-22T07:23:52.600Z,24.90
2019-01-22T07:24:52.576Z,27.10
2019-01-22T07:25:52.543Z,25.50
2019-01-22T07:26:52.508Z,26.80
2019-01-22T07:27:52.481Z,26.50
2019-01-22T07:28:52.441Z,28.00
2019-01-22T07:29:52.411Z,26.60
2019-01-22T07:30:52.381Z,23.60
2019-01-22T07:31:52.349Z,25.70
2019-01-22T07:32:52.319Z,27.20
2019-01-22T07:33:52.341Z,25.90
2019-01-22T07:34:52.255Z,24.80
2019-01-22T07:35:52.238Z,25.20
2019-01-22T07:36:52.192Z,26.60
2019-01-22T07:37:52.171Z,26.60
2019-01-22T07:38:52.252Z,25.40
2019-01-22T07:39:52.106Z,24.70
2019-01-22T07:40:52.078Z,26.40
2019-01-22T07:41:52.052Z,22.80
2019-01-22T07:42:52.014Z,27.90
2019-01-22T07:43:51.989Z,24.30
2019-01-22T07:44:51.943Z,25.50
2019-01-22T07:45:51.913Z,26.40
2019-01-22T07:46:51.898Z,26.70
2019-01-22T07:47:51.851Z,25.80
2019-01-22T07:48:51.820Z,29.30
2019-01-22T07:49:51.796Z,27.20
2019-01-22T07:50:51.766Z,27.10
2019-01-22T07:51:51.730Z,26.60
2019-01-22T07:52:51.703Z,27.10
2019-01-22T07:53:51.666Z,25.10
2019-01-22T07:54:53.972Z,26.20
2019-01-22T07:55:51.604Z,26.70
2019-01-22T07:56:51.574Z,26.90
2019-01-22T07:57:51.543Z,28.10
2019-01-22T07:58:51.528Z,26.70
2019-01-22T07:59:51.482Z,27.30
2019-01-22T08:00:51.450Z,25.70
2019-01-22T08:01:51.426Z,25.30
2019-01-22T08:02:51.388Z,27.00
2019-01-22T08:03:51.366Z,26.80
2019-01-22T08:04:51.333Z,27.40
2019-01-22T08:05:51.294Z,24.40
2019-01-22T08:06:51.263Z,23.30
2019-01-22T08:07:51.234Z,23.90
2019-01-22T08:08:51.201Z,26.30
2019-01-22T08:09:51.172Z,26.00
2019-01-22T08:10:51.140Z,27.30
2019-01-22T08:11:51.112Z,28.50
2019-01-22T08:12:51.078Z,24.00
2019-01-22T08:13:51.048Z,26.70
2019-01-22T08:14:51.022Z,26.70
2019-01-22T08:15:50.987Z,26.20
2019-01-22T08:16:50.967Z,23.20
2019-01-22T08:17:50.926Z,27.30
2019-01-22T08:18:50.904Z,24.50
2019-01-22T08:19:50.865Z,25.10
2019-01-22T08:20:50.832Z,27.80
2019-01-22T08:21:50.802Z,26.40
2019-01-22T08:22:50.771Z,26.20
2019-01-22T08:23:50.740Z,30.00
2019-01-22T08:24:50.708Z,27.40
2019-01-22T08:25:50.679Z,26.70
2019-01-22T08:26:50.664Z,26.50
2019-01-22T08:27:50.618Z,26.10
2019-01-22T08:28:50.587Z,30.30
2019-01-22T08:29:50.555Z,28.00
2019-01-22T08:30:50.536Z,30.60
2019-01-22T08:31:50.507Z,24.80
2019-01-22T08:32:50.471Z,28.30
2019-01-22T08:33:50.446Z,29.10
2019-01-22T08:34:50.406Z,27.50
2019-01-22T08:35:50.383Z,24.90
2019-01-22T08:36:50.343Z,26.80
2019-01-22T08:37:50.314Z,29.00
2019-01-22T08:38:50.280Z,26.90
2019-01-22T08:39:50.261Z,28.50
2019-01-22T08:40:50.221Z,25.60
2019-01-22T08:41:50.189Z,26.60
2019-01-22T08:42:50.160Z,27.10
2019-01-22T08:43:50.180Z,26.10
2019-01-22T08:44:50.098Z,25.60
2019-01-22T08:45:50.075Z,25.40
2019-01-22T08:46:50.217Z,27.30
2019-01-22T08:47:50.005Z,26.30
2019-01-22T08:48:49.978Z,25.90
2019-01-22T08:49:49.944Z,26.30
2019-01-22T08:50:49.922Z,29.10
2019-01-22T08:51:49.887Z,25.90
2019-01-22T08:52:49.922Z,27.90
2019-01-22T08:53:49.831Z,27.30
2019-01-22T08:54:49.798Z,30.30
2019-01-22T08:55:49.772Z,29.50
2019-01-22T08:56:49.756Z,30.80
2019-01-22T08:57:49.702Z,26.60
2019-01-22T08:58:49.673Z,28.60
2019-01-22T08:59:49.641Z,26.40
2019-01-22T09:00:49.610Z,26.30
2019-01-22T09:01:49.589Z,28.80
2019-01-22T09:02:49.555Z,27.10
2019-01-22T09:03:49.521Z,27.70
2019-01-22T09:04:49.493Z,25.70
2019-01-22T09:05:49.462Z,25.60
2019-01-22T09:06:49.434Z,27.00
2019-01-22T09:07:49.402Z,24.90
2019-01-22T09:08:49.377Z,25.80
2019-01-22T09:09:49.347Z,25.20
2019-01-22T09:10:49.326Z,25.30
2019-01-22T09:11:49.280Z,24.90
2019-01-22T09:12:49.248Z,27.00
2019-01-22T09:13:49.220Z,27.60
2019-01-22T09:14:49.219Z,25.20
2019-01-22T09:15:49.169Z,24.90
2019-01-22T09:16:49.139Z,24.90
2019-01-22T09:17:49.100Z,26.30
2019-01-22T09:18:49.078Z,26.40
2019-01-22T09:19:49.041Z,29.70
2019-01-22T09:20:49.008Z,26.50
2019-01-22T09:21:48.981Z,26.30
2019-01-22T09:22:48.965Z,27.00
2019-01-22T09:23:48.922Z,25.70
2019-01-22T09:24:48.901Z,26.10
2019-01-22T09:25:48.860Z,28.70
2019-01-22T09:26:48.831Z,27.80
2019-01-22T09:27:48.801Z,26.80
2019-01-22T09:28:48.771Z,24.30
2019-01-22T09:29:48.741Z,28.90
2019-01-22T09:30:48.720Z,26.70
2019-01-22T09:31:48.685Z,27.90
2019-01-22T09:32:48.662Z,21.60
2019-01-22T09:33:49.601Z,25.20
2019-01-22T09:34:48.603Z,26.10
2019-01-22T09:35:48.564Z,26.50
2019-01-22T09:36:48.541Z,25.10
2019-01-22T09:37:48.512Z,25.50
2019-01-22T09:38:48.484Z,30.20
2019-01-22T09:39:49.306Z,28.00
2019-01-22T09:40:48.467Z,26.40
2019-01-22T09:41:48.388Z,25.90
2019-01-22T09:42:48.359Z,28.80
2019-01-22T09:43:48.328Z,28.70
2019-01-22T09:44:48.299Z,28.20
2019-01-22T09:45:48.270Z,30.40
2019-01-22T09:46:48.240Z,28.60
2019-01-22T09:47:48.219Z,33.50
2019-01-22T09:48:48.182Z,36.00
2019-01-22T09:49:48.155Z,39.10
2019-01-22T09:50:48.131Z,32.90
2019-01-22T09:51:48.104Z,36.80
2019-01-22T09:52:48.066Z,34.90
2019-01-22T09:53:48.038Z,39.00
2019-01-22T09:54:48.007Z,38.80
2019-01-22T09:55:47.986Z,47.00
2019-01-22T09:56:47.948Z,36.00
2019-01-22T09:57:47.929Z,37.00
2019-01-22T09:58:47.894Z,31.10
2019-01-22T09:59:48.520Z,30.10
2019-01-22T10:00:47.835Z,33.50
2019-01-22T10:01:47.807Z,30.90
2019-01-22T10:02:47.775Z,28.40
2019-01-22T10:03:47.757Z,33.10
2019-01-22T10:04:47.725Z,36.00
2019-01-22T10:05:47.688Z,29.80
2019-01-22T10:06:47.685Z,27.40
2019-01-22T10:07:47.641Z,30.60
2019-01-22T10:08:47.608Z,28.40
2019-01-22T10:09:47.571Z,26.10
2019-01-22T10:10:47.545Z,26.60
2019-01-22T10:11:47.514Z,29.40
2019-01-22T10:12:47.490Z,27.40
2019-01-22T10:13:48.300Z,27.30
2019-01-22T10:14:47.428Z,25.90
2019-01-22T10:15:47.399Z,26.70
2019-01-22T10:16:47.369Z,31.60
2019-01-22T10:17:47.341Z,24.60
2019-01-22T10:18:47.355Z,26.60
2019-01-22T10:19:47.283Z,26.90
2019-01-22T10:20:47.255Z,25.00
2019-01-22T10:21:47.226Z,28.00
2019-01-22T10:22:47.207Z,31.40
2019-01-22T10:23:47.171Z,26.00
2019-01-22T10:24:47.142Z,24.00
2019-01-22T10:25:47.129Z,28.90
2019-01-22T10:26:47.087Z,27.00
2019-01-22T10:27:47.057Z,27.70
2019-01-22T10:28:47.030Z,29.60
2019-01-22T10:29:47.005Z,24.10
2019-01-22T10:30:46.983Z,25.80
2019-01-22T10:31:50.391Z,27.20
2019-01-22T10:32:46.931Z,23.10
2019-01-22T10:33:46.891Z,24.70
2019-01-22T10:34:46.861Z,27.20
2019-01-22T10:35:46.844Z,25.70
2019-01-22T10:36:46.817Z,27.00
2019-01-22T10:37:46.789Z,25.00
2019-01-22T10:38:46.752Z,28.60
2019-01-22T10:39:46.735Z,24.90
2019-01-22T10:40:46.703Z,29.00
2019-01-22T10:41:46.709Z,27.00
2019-01-22T10:42:46.641Z,25.70
2019-01-22T10:43:46.629Z,23.70
2019-01-22T10:44:46.586Z,26.20
2019-01-22T10:45:46.558Z,26.20
2019-01-22T10:46:46.536Z,27.20
2019-01-22T10:47:46.511Z,24.90
2019-01-22T10:48:46.477Z,26.30
2019-01-22T10:49:46.447Z,24.60
2019-01-22T10:50:46.420Z,23.60
2019-01-22T10:51:46.393Z,26.60
2019-01-22T10:52:46.371Z,25.20
2019-01-22T10:53:46.342Z,27.10
2019-01-22T10:54:46.309Z,24.40
2019-01-22T10:55:46.282Z,27.20
2019-01-22T10:56:46.277Z,26.60
2019-01-22T10:57:46.228Z,26.10
2019-01-22T10:58:46.346Z,24.20
2019-01-22T10:59:46.179Z,24.70
2019-01-22T11:00:46.147Z,23.80
2019-01-22T11:01:46.117Z,24.60
2019-01-22T11:02:46.088Z,22.20
2019-01-22T11:03:46.062Z,21.40
2019-01-22T11:04:46.033Z,24.10
2019-01-22T11:05:46.009Z,25.10
2019-01-22T11:06:45.984Z,24.30
2019-01-22T11:07:45.965Z,22.70
2019-01-22T11:08:45.924Z,23.70
2019-01-22T11:09:45.896Z,26.20
2019-01-22T11:10:45.870Z,21.30
2019-01-22T11:11:45.842Z,24.50
2019-01-22T11:12:45.823Z,22.30
2019-01-22T11:13:45.793Z,24.20
2019-01-22T11:14:45.759Z,23.70
2019-01-22T11:15:45.748Z,23.30
2019-01-22T11:16:45.706Z,24.80
2019-01-22T11:17:45.688Z,26.20
2019-01-22T11:18:45.653Z,23.70
2019-01-22T11:19:45.627Z,25.80
2019-01-22T11:20:45.597Z,20.60
2019-01-22T11:21:45.568Z,22.50
2019-01-22T11:22:45.543Z,23.10
2019-01-22T11:23:45.520Z,23.40
2019-01-22T11:24:45.493Z,26.00
2019-01-22T11:25:45.467Z,23.50
2019-01-22T11:26:45.436Z,23.20
2019-01-22T11:27:45.409Z,25.80
2019-01-22T11:28:45.379Z,24.70
2019-01-22T11:29:45.351Z,25.20
2019-01-22T11:30:45.332Z,21.60
2019-01-22T11:31:45.299Z,24.60
2019-01-22T11:32:45.276Z,24.10
2019-01-22T11:33:45.241Z,23.60
2019-01-22T11:34:45.215Z,25.10
2019-01-22T11:35:45.187Z,20.20
2019-01-22T11:36:45.159Z,22.20
2019-01-22T11:37:45.132Z,21.10
2019-01-22T11:38:45.107Z,20.90
2019-01-22T11:39:45.088Z,22.70
2019-01-22T11:40:45.059Z,23.20
2019-01-22T11:41:45.027Z,22.80
2019-01-22T11:42:45.011Z,21.50
2019-01-22T11:43:44.971Z,22.10
2019-01-22T11:44:44.952Z,21.30
2019-01-22T11:45:44.916Z,22.90
2019-01-22T11:46:44.901Z,20.50
2019-01-22T11:47:44.862Z,25.40
2019-01-22T11:48:44.913Z,23.20
2019-01-22T11:49:44.817Z,21.70
2019-01-22T11:50:44.788Z,23.80
2019-01-22T11:51:44.754Z,21.70
2019-01-22T11:52:44.773Z,22.60
2019-01-22T11:53:44.700Z,24.30
2019-01-22T11:54:44.674Z,23.20
2019-01-22T11:55:50.498Z,22.20
2019-01-22T11:56:44.626Z,20.20
2019-01-22T11:57:44.602Z,21.50
2019-01-22T11:58:44.571Z,23.20
2019-01-22T11:59:45.948Z,22.20
2019-01-22T12:00:44.513Z,22.80
2019-01-22T12:01:44.486Z,21.10
2019-01-22T12:02:44.458Z,24.00
2019-01-22T12:03:44.438Z,24.40
2019-01-22T12:04:44.419Z,25.30
2019-01-22T12:05:44.378Z,26.40
2019-01-22T12:06:44.351Z,21.20
2019-01-22T12:07:44.345Z,27.70
2019-01-22T12:08:44.296Z,22.00
2019-01-22T12:09:44.291Z,27.00
2019-01-22T12:10:44.241Z,24.80
2019-01-22T12:11:44.219Z,22.30
2019-01-22T12:12:44.193Z,21.10
2019-01-22T12:13:44.160Z,23.00
2019-01-22T12:14:44.139Z,27.00
2019-01-22T12:15:44.106Z,29.70
2019-01-22T12:16:44.081Z,24.50
2019-01-22T12:17:44.054Z,24.70
2019-01-22T12:18:44.029Z,20.50
2019-01-22T12:19:44.007Z,21.30
2019-01-22T12:20:43.970Z,21.00
2019-01-22T12:21:43.946Z,20.90
2019-01-22T12:22:43.920Z,24.10
2019-01-22T12:23:43.892Z,27.10
2019-01-22T12:24:43.868Z,26.60
2019-01-22T12:25:43.855Z,26.60
2019-01-22T12:26:43.827Z,23.00
2019-01-22T12:27:43.788Z,22.00
2019-01-22T12:28:43.758Z,18.80
2019-01-22T12:29:43.732Z,23.10
2019-01-22T12:30:43.717Z,27.00
2019-01-22T12:31:43.680Z,19.60
2019-01-22T12:32:44.457Z,23.10
2019-01-22T12:33:43.629Z,21.40
2019-01-22T12:34:43.599Z,19.20
2019-01-22T12:35:43.571Z,23.30
2019-01-22T12:36:43.550Z,23.20
2019-01-22T12:37:43.523Z,20.30
2019-01-22T12:38:43.498Z,19.40
2019-01-22T12:39:43.464Z,21.00
2019-01-22T12:40:43.437Z,22.00
2019-01-22T12:41:43.418Z,19.00
2019-01-22T12:42:43.402Z,21.90
2019-01-22T12:43:43.368Z,19.80
2019-01-22T12:44:43.331Z,21.50
2019-01-22T12:45:43.309Z,22.10
2019-01-22T12:46:43.280Z,22.10
2019-01-22T12:47:43.259Z,28.40
2019-01-22T12:48:43.241Z,21.70
2019-01-22T12:49:43.199Z,20.00
2019-01-22T12:50:43.171Z,17.30
2019-01-22T12:51:43.160Z,20.50